Portada
METAR-TAF:

METAR-TAF

Aeroports :

Kuala Terengganu, Malàisia

latitud: 05-22-53N, longitud: 103-06-17E, altitud: 6 m

Observació

L'informe es va fer fa 50 minuts, a les 17:00 UTC
Vent 3 kt del Sud, variant entre Est i Sud-Oest
Temperatura 26°C
Humitat 89%
Pressió 1010 hPa
Visibilitat: 6000 m
Escasses núvols a una alçada de 2200 ft
Cel ennuvolat a una alçada de 30000 ft

METAR: WMKN 211700Z 17003KT 080V230 6000 FEW022 BKN300 26/24 Q1010

Hora: 01:50 (17:50 UTC)

Pronòstic

L'informe es va fer fa 50 minuts, a les 17:00 UTC
Pronòstic vàlid del 21 a les 18 UTC al 22 a les 18 UTC
Vent 3 kt amb direcció variable
Visibilitat: 5000 m
Escasses núvols a una alçada de 2200 ft
calitja
Evolucionant progressivament
l' 22 a les 00 UTC al 22 a les 02 UTC
Visibilitat: 6000 m
Escasses núvols a una alçada de 1800 ft

TAF: WMKN 211700Z 2118/2218 VRB03KT 5000 HZ FEW022 BECMG 2200/2202 6000 FEW018

Observacions i pronòstics meteorològics de més de 4000 aeroports (METAR i TAF).

Les estacions disponibles són els punts grocs i vermells al mapa.

Posi el ratolí al punt desitjat per veure el nom de l'estació.

Feu clic per veure les observacions i els pronòstics meteorològics.

Per canviar el mapa: feu clic els botons verds amb una creu de color negre per apropar; al botó verd amb un guió per allunyar la imatge; o en les fletxes verdes per a mapes adjacents.


METAR-TAF: